createdAt,value
2023-05-21T00:00:35.992Z,4.73
2023-05-21T00:03:04.831Z,2.43
2023-05-21T00:05:33.673Z,4.60
2023-05-21T00:08:02.288Z,1.87
2023-05-21T00:10:30.880Z,4.70
2023-05-21T00:13:00.930Z,3.30
2023-05-21T00:15:29.553Z,2.87
2023-05-21T00:17:58.124Z,2.57
2023-05-21T00:20:26.918Z,3.63
2023-05-21T00:22:55.473Z,4.53
2023-05-21T00:25:24.166Z,3.33
2023-05-21T00:27:52.742Z,3.03
2023-05-21T00:30:23.004Z,2.83
2023-05-21T00:32:51.603Z,2.90
2023-05-21T00:35:20.301Z,7.60
2023-05-21T00:37:48.837Z,6.07
2023-05-21T00:40:19.803Z,5.90
2023-05-21T00:42:48.342Z,3.23
2023-05-21T00:45:17.135Z,2.80
2023-05-21T00:47:48.409Z,2.07
2023-05-21T00:50:17.557Z,5.37
2023-05-21T00:52:46.218Z,2.33
2023-05-21T00:55:14.836Z,2.30
2023-05-21T00:57:43.533Z,3.40
2023-05-21T01:00:14.825Z,2.60
2023-05-21T01:02:44.344Z,3.70
2023-05-21T01:05:15.460Z,2.93
2023-05-21T01:07:44.237Z,9.67
2023-05-21T01:10:13.264Z,2.90
2023-05-21T01:12:45.040Z,3.30
2023-05-21T01:15:14.228Z,5.50
2023-05-21T01:17:46.111Z,3.53
2023-05-21T01:20:18.049Z,2.80
2023-05-21T01:22:54.012Z,4.00
2023-05-21T01:25:22.958Z,2.80
2023-05-21T01:27:52.121Z,7.53
2023-05-21T01:30:22.453Z,2.83
2023-05-21T01:32:59.047Z,10.70
2023-05-21T01:35:32.058Z,4.90
2023-05-21T01:38:09.224Z,4.33
2023-05-21T01:40:42.903Z,4.23
2023-05-21T01:43:12.651Z,4.20
2023-05-21T01:45:43.362Z,8.67
2023-05-21T01:48:13.896Z,3.63
2023-05-21T01:50:44.912Z,4.70
2023-05-21T01:53:17.226Z,4.87
2023-05-21T01:55:46.032Z,4.10
2023-05-21T01:58:15.704Z,6.60
2023-05-21T02:00:45.483Z,4.30
2023-05-21T02:03:16.497Z,5.40
2023-05-21T02:05:45.910Z,7.23
2023-05-21T02:08:16.210Z,5.30
2023-05-21T02:10:44.787Z,7.10
2023-05-21T02:13:13.373Z,4.40
2023-05-21T02:15:41.930Z,4.63
2023-05-21T02:18:11.380Z,7.13
2023-05-21T02:20:40.146Z,4.73
2023-05-21T02:23:08.705Z,4.97
2023-05-21T02:25:38.782Z,7.47
2023-05-21T02:28:07.850Z,5.40
2023-05-21T02:30:36.590Z,5.60
2023-05-21T02:33:05.364Z,4.60
2023-05-21T02:35:35.471Z,4.73
2023-05-21T02:38:04.270Z,5.20
2023-05-21T02:40:33.132Z,3.87
2023-05-21T02:43:03.066Z,8.40
2023-05-21T02:45:33.836Z,4.17
2023-05-21T02:48:03.056Z,11.67
2023-05-21T02:50:35.174Z,6.73
2023-05-21T02:53:04.252Z,8.37
2023-05-21T02:55:33.334Z,3.63
2023-05-21T02:58:04.586Z,4.93
2023-05-21T03:00:33.356Z,5.60
2023-05-21T03:03:02.704Z,4.67
2023-05-21T03:05:31.805Z,3.93
2023-05-21T03:08:00.364Z,4.20
2023-05-21T03:10:28.985Z,4.53
2023-05-21T03:12:57.583Z,4.03
2023-05-21T03:15:27.571Z,5.07
2023-05-21T03:17:57.093Z,6.80
2023-05-21T03:20:26.895Z,4.00
2023-05-21T03:22:55.935Z,5.20
2023-05-21T03:25:25.332Z,6.53
2023-05-21T03:27:55.173Z,4.83
2023-05-21T03:30:46.381Z,5.83
2023-05-21T03:33:37.850Z,4.23
2023-05-21T03:36:19.195Z,6.07
2023-05-21T03:38:47.779Z,6.17
2023-05-21T03:41:17.744Z,4.67
2023-05-21T03:43:50.891Z,6.03
2023-05-21T03:46:22.622Z,9.23
2023-05-21T03:49:05.082Z,4.47
2023-05-21T03:51:35.243Z,7.73
2023-05-21T03:54:03.763Z,7.43
2023-05-21T03:56:33.085Z,3.93
2023-05-21T03:59:02.260Z,7.67
2023-05-21T04:01:33.965Z,9.87
2023-05-21T04:04:03.471Z,5.67
2023-05-21T04:06:32.138Z,5.07
2023-05-21T04:09:01.169Z,5.23
2023-05-21T04:11:29.786Z,5.90
2023-05-21T04:13:58.507Z,4.40
2023-05-21T04:16:27.172Z,5.20
2023-05-21T04:18:57.197Z,6.60
2023-05-21T04:21:28.400Z,6.50
2023-05-21T04:23:57.544Z,4.20
2023-05-21T04:26:52.473Z,3.87
2023-05-21T04:29:22.011Z,7.33
2023-05-21T04:31:51.954Z,3.67
2023-05-21T04:34:22.014Z,11.67
2023-05-21T04:36:51.997Z,5.53
2023-05-21T04:39:20.600Z,5.20
2023-05-21T04:41:50.796Z,5.37
2023-05-21T04:44:19.570Z,7.10
2023-05-21T04:46:49.043Z,5.33
2023-05-21T04:49:20.961Z,5.43
2023-05-21T04:51:50.942Z,7.73
2023-05-21T04:54:19.604Z,4.93
2023-05-21T04:56:48.325Z,8.93
2023-05-21T04:59:17.465Z,6.53
2023-05-21T05:01:46.058Z,9.97
2023-05-21T05:04:14.583Z,5.90
2023-05-21T05:06:43.144Z,3.30
2023-05-21T05:09:13.675Z,4.40
2023-05-21T05:11:42.458Z,8.03
2023-05-21T05:14:11.049Z,5.27
2023-05-21T05:16:39.753Z,5.13
2023-05-21T05:19:09.204Z,5.03
2023-05-21T05:21:37.893Z,6.50
2023-05-21T05:24:07.430Z,7.07
2023-05-21T05:26:38.163Z,5.50
2023-05-21T05:29:07.211Z,4.93
2023-05-21T05:31:35.773Z,5.17
2023-05-21T05:34:04.406Z,5.63
2023-05-21T05:36:33.770Z,7.90
2023-05-21T05:39:02.401Z,5.80
2023-05-21T05:41:31.041Z,6.87
2023-05-21T05:44:01.178Z,6.17
2023-05-21T05:46:37.912Z,6.97
2023-05-21T05:49:06.859Z,5.30
2023-05-21T05:51:36.131Z,5.17
2023-05-21T05:54:04.868Z,4.83
2023-05-21T05:56:34.340Z,6.23
2023-05-21T05:59:04.338Z,9.33
2023-05-21T06:01:35.534Z,6.63
2023-05-21T06:04:04.142Z,5.33
2023-05-21T06:06:34.778Z,9.10
2023-05-21T06:09:03.476Z,4.37
2023-05-21T06:11:32.235Z,6.37
2023-05-21T06:14:01.986Z,3.90
2023-05-21T06:16:32.274Z,8.23
2023-05-21T06:19:01.099Z,6.33
2023-05-21T06:21:29.955Z,5.03
2023-05-21T06:23:58.706Z,4.70
2023-05-21T06:26:27.487Z,5.60
2023-05-21T06:28:56.561Z,5.17
2023-05-21T06:31:25.959Z,5.63
2023-05-21T06:33:56.250Z,5.37
2023-05-21T06:36:26.199Z,8.17
2023-05-21T06:38:55.023Z,5.50
2023-05-21T06:41:24.157Z,7.03
2023-05-21T06:43:59.494Z,7.40
2023-05-21T06:46:48.252Z,6.93
2023-05-21T06:49:18.266Z,6.33
2023-05-21T06:51:47.262Z,8.90
2023-05-21T06:54:16.046Z,9.90
2023-05-21T06:56:44.691Z,5.27
2023-05-21T06:59:13.519Z,6.30
2023-05-21T07:01:43.906Z,6.03
2023-05-21T07:04:12.787Z,8.00
2023-05-21T07:06:44.895Z,7.70
2023-05-21T07:09:13.750Z,5.20
2023-05-21T07:11:42.380Z,8.53
2023-05-21T07:14:11.771Z,7.20
2023-05-21T07:16:40.510Z,6.03
2023-05-21T07:19:10.062Z,5.90
2023-05-21T07:21:38.961Z,7.13
2023-05-21T07:24:10.636Z,6.67
2023-05-21T07:26:41.492Z,7.53
2023-05-21T07:29:10.701Z,7.33
2023-05-21T07:31:39.898Z,4.77
2023-05-21T07:34:09.333Z,6.60
2023-05-21T07:36:38.057Z,9.27
2023-05-21T07:39:06.802Z,5.43
2023-05-21T07:41:37.141Z,6.07
2023-05-21T07:44:09.290Z,6.97
2023-05-21T07:46:42.029Z,6.40
2023-05-21T07:49:16.515Z,5.53
2023-05-21T07:51:46.758Z,5.43
2023-05-21T07:54:15.734Z,6.47
2023-05-21T07:56:45.702Z,5.67
2023-05-21T07:59:27.040Z,7.37
2023-05-21T08:01:55.753Z,10.30
2023-05-21T08:04:24.586Z,7.47
2023-05-21T08:06:53.831Z,5.57
2023-05-21T08:09:22.446Z,6.80
2023-05-21T08:11:52.522Z,6.90
2023-05-21T08:14:21.176Z,7.97
2023-05-21T08:16:50.108Z,6.33
2023-05-21T08:19:19.043Z,5.43
2023-05-21T08:21:49.699Z,5.70
2023-05-21T08:24:20.079Z,6.10
2023-05-21T08:26:50.723Z,8.17
2023-05-21T08:29:22.833Z,6.67
2023-05-21T08:31:51.590Z,9.00
2023-05-21T08:34:20.261Z,6.83
2023-05-21T08:36:58.684Z,8.43
2023-05-21T08:39:50.163Z,6.33
2023-05-21T08:42:37.028Z,5.60
2023-05-21T08:45:12.602Z,6.03
2023-05-21T08:47:43.460Z,12.40
2023-05-21T08:50:14.693Z,6.87
2023-05-21T08:52:43.610Z,9.20
2023-05-21T08:55:12.385Z,6.73
2023-05-21T08:57:45.496Z,10.60
2023-05-21T09:00:20.729Z,7.57
2023-05-21T09:02:49.800Z,8.23
2023-05-21T09:05:21.909Z,7.53
2023-05-21T09:08:00.916Z,6.57
2023-05-21T09:10:37.803Z,6.33
2023-05-21T09:13:08.043Z,7.97
2023-05-21T09:15:38.693Z,9.80
2023-05-21T09:18:08.504Z,7.37
2023-05-21T09:20:52.355Z,5.87
2023-05-21T09:23:21.504Z,7.03
2023-05-21T09:25:51.992Z,10.73
2023-05-21T09:28:36.884Z,5.30
2023-05-21T09:31:06.918Z,7.87
2023-05-21T09:33:35.772Z,6.33
2023-05-21T09:36:04.558Z,10.90
2023-05-21T09:38:35.573Z,6.03
2023-05-21T09:41:06.654Z,7.90
2023-05-21T09:43:37.339Z,5.60
2023-05-21T09:46:08.260Z,5.90
2023-05-21T09:48:40.759Z,7.57
2023-05-21T09:51:13.993Z,4.93
2023-05-21T09:53:54.311Z,6.80
2023-05-21T09:56:24.679Z,5.43
2023-05-21T09:58:55.588Z,8.90
2023-05-21T10:01:26.479Z,7.07
2023-05-21T10:03:57.594Z,7.33
2023-05-21T10:06:28.610Z,10.33
2023-05-21T10:08:58.516Z,6.47
2023-05-21T10:11:31.670Z,8.70
2023-05-21T10:14:07.092Z,6.40
2023-05-21T10:16:38.367Z,7.17
2023-05-21T10:19:10.895Z,5.00
2023-05-21T10:21:40.854Z,6.47
2023-05-21T10:24:10.707Z,5.67
2023-05-21T10:26:40.841Z,10.53
2023-05-21T10:29:10.174Z,5.72
2023-05-21T10:31:40.332Z,9.60
2023-05-21T10:34:09.495Z,5.75
2023-05-21T10:36:39.425Z,4.57
2023-05-21T10:39:09.566Z,6.22
2023-05-21T10:41:48.905Z,5.30
2023-05-21T10:44:28.487Z,6.95
2023-05-21T10:47:37.128Z,5.10
2023-05-21T10:50:23.077Z,7.75
2023-05-21T10:53:09.359Z,5.00
2023-05-21T10:55:51.229Z,5.13
2023-05-21T10:58:47.041Z,7.15
2023-05-21T11:01:19.349Z,4.18
2023-05-21T11:03:50.510Z,6.60
2023-05-21T11:06:25.410Z,10.70
2023-05-21T11:08:55.699Z,7.47
2023-05-21T11:11:43.567Z,9.63
2023-05-21T11:14:36.235Z,6.05
2023-05-21T11:17:11.381Z,9.52
2023-05-21T11:19:43.209Z,10.77
2023-05-21T11:22:22.745Z,9.27
2023-05-21T11:24:51.872Z,6.47
2023-05-21T11:27:36.683Z,4.83
2023-05-21T11:30:08.092Z,6.30
2023-05-21T11:32:39.911Z,6.30
2023-05-21T11:35:10.260Z,5.70
2023-05-21T11:37:41.753Z,7.63
2023-05-21T11:40:27.260Z,6.63
2023-05-21T11:42:56.532Z,7.37
2023-05-21T11:45:29.402Z,7.37
2023-05-21T11:47:58.495Z,8.82
2023-05-21T11:50:30.656Z,6.88
2023-05-21T11:53:00.965Z,6.53
2023-05-21T11:55:29.663Z,8.75
2023-05-21T11:58:00.110Z,6.47
2023-05-21T12:00:28.685Z,10.13
2023-05-21T12:02:58.864Z,8.35
2023-05-21T12:05:28.962Z,6.57
2023-05-21T12:07:58.444Z,7.55
2023-05-21T12:10:27.094Z,7.47
2023-05-21T12:12:57.313Z,10.73
2023-05-21T12:15:27.862Z,10.52
2023-05-21T12:17:57.869Z,6.88
2023-05-21T12:20:30.970Z,6.60
2023-05-21T12:23:00.648Z,12.85
2023-05-21T12:25:30.457Z,9.63
2023-05-21T12:28:01.467Z,9.20
2023-05-21T12:30:30.859Z,9.75
2023-05-21T12:33:02.170Z,8.90
2023-05-21T12:35:32.797Z,11.85
2023-05-21T12:38:04.729Z,7.80
2023-05-21T12:40:38.682Z,7.60
2023-05-21T12:43:08.433Z,9.05
2023-05-21T12:45:39.335Z,5.97
2023-05-21T12:48:08.468Z,8.50
2023-05-21T12:50:40.512Z,8.50
2023-05-21T12:53:12.108Z,9.07
2023-05-21T12:55:41.153Z,11.75
2023-05-21T12:58:09.806Z,11.90
2023-05-21T13:00:38.955Z,9.07
2023-05-21T13:03:08.519Z,10.75
2023-05-21T13:05:40.783Z,6.07
2023-05-21T13:08:13.806Z,9.15
2023-05-21T13:10:42.650Z,8.63
2023-05-21T13:13:11.231Z,8.73
2023-05-21T13:15:40.095Z,7.88
2023-05-21T13:18:08.793Z,10.02
2023-05-21T13:20:38.002Z,10.02
2023-05-21T13:23:08.362Z,8.00
2023-05-21T13:25:39.776Z,15.18
2023-05-21T13:28:10.345Z,12.95
2023-05-21T13:30:39.282Z,8.55
2023-05-21T13:33:08.379Z,8.40
2023-05-21T13:35:37.629Z,9.30
2023-05-21T13:38:06.270Z,11.20
2023-05-21T13:40:37.363Z,9.25
2023-05-21T13:43:08.814Z,10.68
2023-05-21T13:45:37.474Z,8.35
2023-05-21T13:48:06.915Z,11.05
2023-05-21T13:50:35.773Z,14.20
2023-05-21T13:53:04.542Z,10.50
2023-05-21T13:55:33.088Z,6.88
2023-05-21T13:58:01.704Z,10.05
2023-05-21T14:00:31.786Z,13.98
2023-05-21T14:03:00.623Z,10.20
2023-05-21T14:05:29.345Z,8.00
2023-05-21T14:07:57.964Z,8.65
2023-05-21T14:10:27.484Z,8.20
2023-05-21T14:13:01.665Z,9.63
2023-05-21T14:15:38.005Z,9.35
2023-05-21T14:18:12.114Z,7.97
2023-05-21T14:20:40.816Z,12.68
2023-05-21T14:23:11.550Z,8.02
2023-05-21T14:25:41.243Z,13.32
2023-05-21T14:28:09.872Z,10.50
2023-05-21T14:30:39.831Z,12.38
2023-05-21T14:33:08.576Z,10.35
2023-05-21T14:35:37.445Z,10.93
2023-05-21T14:38:06.258Z,8.07
2023-05-21T14:40:34.827Z,11.73
2023-05-21T14:43:03.983Z,7.22
2023-05-21T14:45:35.316Z,9.75
2023-05-21T14:48:08.625Z,8.30
2023-05-21T14:50:37.569Z,9.98
2023-05-21T14:53:06.665Z,9.15
2023-05-21T14:55:37.258Z,8.68
2023-05-21T14:58:06.438Z,9.95
2023-05-21T15:00:36.177Z,9.23
2023-05-21T15:03:06.715Z,6.78
2023-05-21T15:05:36.150Z,6.65
2023-05-21T15:08:05.932Z,8.05
2023-05-21T15:10:34.589Z,10.57
2023-05-21T15:13:03.891Z,7.73
2023-05-21T15:15:32.557Z,7.70
2023-05-21T15:18:01.156Z,7.43
2023-05-21T15:20:31.147Z,8.70
2023-05-21T15:23:15.396Z,5.33
2023-05-21T15:25:46.085Z,6.90
2023-05-21T15:28:14.704Z,6.47
2023-05-21T15:30:43.455Z,8.60
2023-05-21T15:33:12.652Z,5.50
2023-05-21T15:35:43.022Z,7.27
2023-05-21T15:38:12.075Z,10.93
2023-05-21T15:40:42.482Z,6.23
2023-05-21T15:43:11.198Z,7.43
2023-05-21T15:45:39.998Z,7.93
2023-05-21T15:48:08.864Z,8.27
2023-05-21T15:50:38.162Z,11.03
2023-05-21T15:53:08.182Z,8.30
2023-05-21T15:55:37.053Z,5.80
2023-05-21T15:58:06.111Z,10.07
2023-05-21T16:00:35.609Z,6.30
2023-05-21T16:03:04.932Z,7.18
2023-05-21T16:05:33.578Z,6.13
2023-05-21T16:08:02.142Z,6.25
2023-05-21T16:10:32.120Z,6.18
2023-05-21T16:13:00.990Z,5.05
2023-05-21T16:15:32.377Z,7.93
2023-05-21T16:18:01.100Z,6.05
2023-05-21T16:20:30.940Z,8.32
2023-05-21T16:22:59.552Z,9.30
2023-05-21T16:25:28.136Z,5.53
2023-05-21T16:27:58.110Z,10.05
2023-05-21T16:30:26.690Z,4.95
2023-05-21T16:32:55.357Z,7.28
2023-05-21T16:35:24.141Z,5.40
2023-05-21T16:37:52.777Z,6.55
2023-05-21T16:40:21.376Z,7.38
2023-05-21T16:42:50.026Z,8.65
2023-05-21T16:45:21.403Z,12.48
2023-05-21T16:47:50.096Z,8.80
2023-05-21T16:50:19.051Z,9.60
2023-05-21T16:52:47.845Z,4.33
2023-05-21T16:55:16.401Z,8.00
2023-05-21T16:57:45.175Z,9.73
2023-05-21T17:00:14.847Z,7.73
2023-05-21T17:02:45.041Z,8.20
2023-05-21T17:05:13.901Z,7.37
2023-05-21T17:07:42.678Z,12.97
2023-05-21T17:10:11.687Z,7.00
2023-05-21T17:12:40.544Z,9.30
2023-05-21T17:15:09.756Z,8.10
2023-05-21T17:17:38.521Z,6.60
2023-05-21T17:20:09.963Z,13.97
2023-05-21T17:22:39.278Z,17.53
2023-05-21T17:25:09.098Z,10.27
2023-05-21T17:27:37.806Z,7.73
2023-05-21T17:30:07.894Z,7.93
2023-05-21T17:32:36.564Z,7.40
2023-05-21T17:35:05.507Z,8.73
2023-05-21T17:37:35.464Z,9.67
2023-05-21T17:40:05.732Z,8.40
2023-05-21T17:42:34.343Z,9.60
2023-05-21T17:45:02.941Z,9.33
2023-05-21T17:47:32.966Z,8.33
2023-05-21T17:50:01.569Z,10.63
2023-05-21T17:52:30.180Z,6.93
2023-05-21T17:55:00.191Z,14.07
2023-05-21T17:57:28.879Z,9.87
2023-05-21T17:59:57.506Z,9.37
2023-05-21T18:02:27.506Z,11.30
2023-05-21T18:04:56.538Z,10.67
2023-05-21T18:07:25.162Z,10.83
2023-05-21T18:09:53.768Z,10.10
2023-05-21T18:12:23.848Z,13.50
2023-05-21T18:14:52.511Z,9.33
2023-05-21T18:17:21.152Z,11.00
2023-05-21T18:19:49.892Z,9.67
2023-05-21T18:22:18.593Z,8.17
2023-05-21T18:24:47.212Z,11.53
2023-05-21T18:27:15.882Z,12.20
2023-05-21T18:29:46.941Z,13.80
2023-05-21T18:32:16.692Z,13.17
2023-05-21T18:34:45.404Z,11.60
2023-05-21T18:37:14.120Z,13.30
2023-05-21T18:39:42.726Z,13.10
2023-05-21T18:42:13.339Z,13.97
2023-05-21T18:44:45.791Z,10.60
2023-05-21T18:47:15.971Z,9.57
2023-05-21T18:49:44.578Z,11.20
2023-05-21T18:52:13.277Z,16.90
2023-05-21T18:54:42.075Z,12.07
2023-05-21T18:57:10.642Z,14.43
2023-05-21T18:59:40.808Z,11.17
2023-05-21T19:02:10.023Z,19.37
2023-05-21T19:04:40.065Z,14.50
2023-05-21T19:07:09.265Z,11.50
2023-05-21T19:09:37.964Z,14.50
2023-05-21T19:12:07.491Z,12.10
2023-05-21T19:14:36.114Z,12.60
2023-05-21T19:17:04.807Z,11.60
2023-05-21T19:19:33.427Z,15.87
2023-05-21T19:22:03.644Z,19.03
2023-05-21T19:24:32.302Z,16.27
2023-05-21T19:27:01.140Z,13.87
2023-05-21T19:29:29.774Z,18.03
2023-05-21T19:31:59.232Z,14.07
2023-05-21T19:34:28.345Z,14.47
2023-05-21T19:36:56.947Z,16.20
2023-05-21T19:39:26.929Z,18.70
2023-05-21T19:41:55.521Z,14.13
2023-05-21T19:44:24.155Z,20.17
2023-05-21T19:46:52.736Z,16.43
2023-05-21T19:49:21.437Z,14.17
2023-05-21T19:51:51.975Z,13.97
2023-05-21T19:54:20.649Z,16.57
2023-05-21T19:56:50.860Z,19.00
2023-05-21T19:59:19.733Z,18.40
2023-05-21T20:01:48.390Z,18.97
2023-05-21T20:04:17.210Z,17.13
2023-05-21T20:06:45.977Z,18.10
2023-05-21T20:09:16.301Z,17.00
2023-05-21T20:11:45.092Z,22.50
2023-05-21T20:14:15.176Z,18.57
2023-05-21T20:16:47.161Z,15.63
2023-05-21T20:19:16.219Z,17.17
2023-05-21T20:21:44.901Z,16.37
2023-05-21T20:24:13.551Z,17.77
2023-05-21T20:26:44.885Z,18.03
2023-05-21T20:29:14.859Z,15.60
2023-05-21T20:31:43.583Z,23.00
2023-05-21T20:34:12.303Z,22.87
2023-05-21T20:36:41.427Z,17.47
2023-05-21T20:39:10.169Z,15.20
2023-05-21T20:41:39.518Z,14.87
2023-05-21T20:44:08.199Z,17.60
2023-05-21T20:46:39.211Z,16.43
2023-05-21T20:49:08.090Z,14.37
2023-05-21T20:51:37.034Z,13.47
2023-05-21T20:54:06.192Z,21.73
2023-05-21T20:56:42.338Z,16.03
2023-05-21T20:59:12.029Z,15.20
2023-05-21T21:01:42.611Z,15.60
2023-05-21T21:04:11.415Z,26.43
2023-05-21T21:06:40.498Z,18.80
2023-05-21T21:09:09.502Z,15.03
2023-05-21T21:11:38.182Z,20.73
2023-05-21T21:14:07.160Z,18.93
2023-05-21T21:16:36.126Z,16.20
2023-05-21T21:19:06.544Z,16.27
2023-05-21T21:21:35.958Z,17.80
2023-05-21T21:24:04.966Z,18.93
2023-05-21T21:26:33.574Z,20.50
2023-05-21T21:29:02.252Z,21.50
2023-05-21T21:31:31.114Z,17.47
2023-05-21T21:33:59.773Z,18.97
2023-05-21T21:36:29.819Z,19.27
2023-05-21T21:38:58.609Z,19.37
2023-05-21T21:41:27.319Z,26.87
2023-05-21T21:43:56.136Z,18.40
2023-05-21T21:46:26.535Z,26.63
2023-05-21T21:48:55.198Z,16.77
2023-05-21T21:51:24.500Z,20.00
2023-05-21T21:53:54.437Z,13.67
2023-05-21T21:56:23.156Z,22.33
2023-05-21T21:58:51.708Z,15.20
2023-05-21T22:01:20.729Z,24.60
2023-05-21T22:03:49.350Z,23.73
2023-05-21T22:06:17.980Z,20.80
2023-05-21T22:08:46.558Z,24.10
2023-05-21T22:11:16.773Z,18.80
2023-05-21T22:13:45.349Z,17.30
2023-05-21T22:16:14.004Z,25.93
2023-05-21T22:18:42.607Z,19.30
2023-05-21T22:21:14.109Z,22.73
2023-05-21T22:23:43.137Z,18.83
2023-05-21T22:26:11.791Z,19.50
2023-05-21T22:28:42.166Z,18.40
2023-05-21T22:31:10.866Z,27.30
2023-05-21T22:33:39.510Z,21.60
2023-05-21T22:36:08.736Z,26.50
2023-05-21T22:38:37.789Z,21.83
2023-05-21T22:41:06.486Z,20.77
2023-05-21T22:43:35.494Z,22.20
2023-05-21T22:46:05.596Z,21.33
2023-05-21T22:48:37.115Z,22.53
2023-05-21T22:51:05.820Z,19.90
2023-05-21T22:53:35.613Z,26.43
2023-05-21T22:56:04.199Z,25.87
2023-05-21T22:58:33.064Z,23.90
2023-05-21T23:01:01.706Z,23.97
2023-05-21T23:03:31.840Z,26.90
2023-05-21T23:06:00.635Z,22.23
2023-05-21T23:08:29.253Z,23.77
2023-05-21T23:10:57.869Z,31.30
2023-05-21T23:13:26.490Z,26.53
2023-05-21T23:15:58.668Z,26.63
2023-05-21T23:18:27.273Z,22.43
2023-05-21T23:20:57.258Z,20.03
2023-05-21T23:23:25.902Z,30.37
2023-05-21T23:25:57.494Z,21.37
2023-05-21T23:28:26.417Z,24.10
2023-05-21T23:30:55.175Z,21.73
2023-05-21T23:33:23.774Z,24.67
2023-05-21T23:35:52.401Z,23.73
2023-05-21T23:38:22.493Z,24.30
2023-05-21T23:40:51.231Z,27.03
2023-05-21T23:43:19.877Z,25.70
2023-05-21T23:45:48.497Z,29.17
2023-05-21T23:48:17.204Z,29.63
2023-05-21T23:50:45.929Z,31.27
2023-05-21T23:53:14.521Z,29.13
2023-05-21T23:55:44.503Z,32.00
2023-05-21T23:58:13.185Z,29.20
